createdAt,value
2023-04-30T00:00:51.693Z,0.00
2023-04-30T00:01:51.678Z,0.00
2023-04-30T00:02:51.756Z,0.00
2023-04-30T00:03:51.771Z,0.00
2023-04-30T00:04:51.638Z,0.00
2023-04-30T00:05:51.662Z,0.00
2023-04-30T00:06:51.637Z,0.00
2023-04-30T00:07:51.623Z,0.00
2023-04-30T00:08:51.596Z,0.00
2023-04-30T00:09:51.618Z,0.00
2023-04-30T00:10:51.588Z,0.00
2023-04-30T00:11:51.572Z,0.00
2023-04-30T00:12:51.588Z,0.00
2023-04-30T00:13:51.544Z,0.00
2023-04-30T00:14:51.552Z,0.00
2023-04-30T00:15:51.596Z,0.00
2023-04-30T00:16:51.576Z,0.00
2023-04-30T00:17:51.555Z,0.00
2023-04-30T00:18:51.500Z,0.00
2023-04-30T00:19:51.533Z,0.00
2023-04-30T00:20:51.462Z,0.00
2023-04-30T00:21:51.440Z,0.00
2023-04-30T00:22:51.469Z,0.00
2023-04-30T00:23:51.434Z,0.00
2023-04-30T00:24:51.413Z,0.00
2023-04-30T00:25:51.395Z,0.00
2023-04-30T00:26:51.414Z,0.00
2023-04-30T00:27:51.404Z,0.00
2023-04-30T00:28:51.375Z,0.00
2023-04-30T00:29:51.353Z,0.00
2023-04-30T00:30:51.359Z,0.00
2023-04-30T00:31:51.383Z,0.00
2023-04-30T00:32:51.400Z,0.00
2023-04-30T00:33:51.313Z,0.00
2023-04-30T00:34:51.312Z,0.00
2023-04-30T00:35:51.300Z,0.00
2023-04-30T00:36:51.285Z,0.00
2023-04-30T00:37:51.278Z,0.00
2023-04-30T00:38:51.268Z,0.00
2023-04-30T00:39:51.242Z,0.00
2023-04-30T00:40:51.239Z,0.00
2023-04-30T00:41:51.263Z,0.00
2023-04-30T00:42:51.246Z,0.00
2023-04-30T00:43:51.205Z,0.00
2023-04-30T00:44:51.195Z,0.00
2023-04-30T00:45:51.259Z,0.00
2023-04-30T00:46:51.178Z,0.00
2023-04-30T00:47:51.275Z,0.00
2023-04-30T00:48:51.158Z,0.00
2023-04-30T00:49:51.173Z,0.00
2023-04-30T00:50:51.138Z,0.00
2023-04-30T00:51:51.112Z,0.00
2023-04-30T00:52:51.102Z,0.00
2023-04-30T00:53:51.086Z,0.00
2023-04-30T00:54:51.223Z,0.00
2023-04-30T00:55:51.084Z,0.00
2023-04-30T00:56:51.064Z,0.00
2023-04-30T00:57:51.096Z,0.00
2023-04-30T00:58:51.042Z,0.00
2023-04-30T00:59:51.018Z,0.00
2023-04-30T01:00:51.021Z,0.00
2023-04-30T01:01:51.020Z,0.00
2023-04-30T01:02:51.118Z,0.00
2023-04-30T01:03:51.020Z,0.00
2023-04-30T01:04:50.974Z,0.00
2023-04-30T01:05:50.977Z,0.00
2023-04-30T01:06:50.966Z,0.00
2023-04-30T01:07:50.927Z,0.00
2023-04-30T01:08:50.918Z,0.00
2023-04-30T01:09:50.904Z,0.00
2023-04-30T01:10:50.904Z,0.00
2023-04-30T01:11:50.877Z,0.00
2023-04-30T01:12:50.926Z,0.00
2023-04-30T01:13:50.860Z,0.00
2023-04-30T01:14:50.856Z,0.00
2023-04-30T01:15:50.857Z,0.00
2023-04-30T01:16:50.846Z,0.00
2023-04-30T01:17:50.938Z,0.00
2023-04-30T01:18:50.870Z,0.00
2023-04-30T01:19:50.895Z,0.00
2023-04-30T01:20:50.810Z,0.00
2023-04-30T01:21:50.772Z,0.00
2023-04-30T01:22:50.786Z,0.00
2023-04-30T01:23:50.759Z,0.00
2023-04-30T01:24:50.745Z,0.00
2023-04-30T01:25:50.736Z,0.00
2023-04-30T01:26:50.758Z,0.00
2023-04-30T01:27:50.742Z,0.00
2023-04-30T01:28:50.726Z,0.00
2023-04-30T01:29:50.704Z,0.00
2023-04-30T01:30:50.708Z,0.00
2023-04-30T01:31:50.898Z,0.00
2023-04-30T01:32:50.692Z,0.00
2023-04-30T01:33:50.661Z,0.00
2023-04-30T01:34:50.649Z,0.00
2023-04-30T01:35:50.645Z,0.00
2023-04-30T01:36:50.623Z,0.00
2023-04-30T01:37:50.634Z,0.00
2023-04-30T01:38:50.594Z,0.00
2023-04-30T01:39:50.563Z,0.00
2023-04-30T01:40:50.564Z,0.00
2023-04-30T01:41:50.570Z,0.00
2023-04-30T01:42:50.587Z,0.00
2023-04-30T01:43:50.526Z,0.00
2023-04-30T01:44:50.519Z,0.00
2023-04-30T01:45:50.600Z,0.00
2023-04-30T01:46:50.497Z,0.00
2023-04-30T01:47:50.622Z,0.00
2023-04-30T01:48:50.511Z,0.00
2023-04-30T01:49:50.468Z,0.00
2023-04-30T01:50:50.470Z,0.00
2023-04-30T01:51:50.544Z,0.00
2023-04-30T01:52:50.453Z,0.00
2023-04-30T01:53:50.456Z,0.00
2023-04-30T01:54:50.498Z,0.00
2023-04-30T01:55:50.445Z,0.00
2023-04-30T01:56:50.467Z,0.00
2023-04-30T01:57:50.447Z,0.00
2023-04-30T01:58:50.529Z,0.00
2023-04-30T01:59:50.450Z,0.00
2023-04-30T02:00:50.600Z,0.00
2023-04-30T02:01:50.578Z,0.00
2023-04-30T02:02:50.539Z,0.00
2023-04-30T02:03:50.612Z,0.00
2023-04-30T02:04:50.634Z,0.00
2023-04-30T02:05:50.495Z,0.00
2023-04-30T02:06:50.590Z,0.00
2023-04-30T02:07:50.522Z,0.00
2023-04-30T02:08:50.580Z,0.00
2023-04-30T02:09:50.254Z,0.00
2023-04-30T02:10:50.273Z,0.00
2023-04-30T02:11:50.223Z,0.00
2023-04-30T02:12:50.224Z,0.00
2023-04-30T02:13:50.186Z,0.00
2023-04-30T02:14:50.217Z,0.00
2023-04-30T02:15:50.214Z,0.00
2023-04-30T02:16:50.192Z,0.00
2023-04-30T02:17:50.215Z,0.00
2023-04-30T02:18:50.935Z,0.00
2023-04-30T02:19:50.127Z,0.00
2023-04-30T02:20:50.131Z,0.00
2023-04-30T02:21:50.105Z,0.00
2023-04-30T02:22:50.102Z,0.00
2023-04-30T02:23:50.085Z,0.00
2023-04-30T02:24:50.089Z,0.00
2023-04-30T02:25:50.057Z,0.00
2023-04-30T02:26:50.072Z,0.00
2023-04-30T02:27:50.031Z,0.00
2023-04-30T02:28:50.024Z,0.00
2023-04-30T02:29:50.019Z,0.00
2023-04-30T02:30:50.013Z,0.00
2023-04-30T02:31:50.019Z,0.00
2023-04-30T02:32:50.083Z,0.00
2023-04-30T02:33:49.975Z,0.00
2023-04-30T02:34:49.959Z,0.00
2023-04-30T02:35:49.938Z,0.00
2023-04-30T02:36:49.977Z,0.00
2023-04-30T02:37:49.919Z,0.00
2023-04-30T02:38:49.926Z,0.00
2023-04-30T02:39:49.896Z,0.00
2023-04-30T02:40:49.938Z,0.00
2023-04-30T02:41:49.862Z,0.00
2023-04-30T02:42:49.908Z,0.00
2023-04-30T02:43:50.243Z,0.00
2023-04-30T02:44:49.882Z,0.00
2023-04-30T02:45:49.894Z,0.00
2023-04-30T02:46:49.849Z,0.00
2023-04-30T02:47:49.906Z,0.00
2023-04-30T02:48:49.804Z,0.00
2023-04-30T02:49:49.825Z,0.00
2023-04-30T02:50:49.791Z,0.00
2023-04-30T02:51:49.789Z,0.00
2023-04-30T02:52:49.786Z,0.00
2023-04-30T02:53:49.738Z,0.00
2023-04-30T02:54:49.743Z,0.00
2023-04-30T02:55:49.732Z,0.00
2023-04-30T02:56:49.720Z,0.00
2023-04-30T02:57:49.722Z,0.00
2023-04-30T02:58:49.712Z,0.00
2023-04-30T02:59:49.679Z,0.00
2023-04-30T03:00:49.685Z,0.00
2023-04-30T03:01:49.721Z,0.00
2023-04-30T03:02:49.700Z,0.00
2023-04-30T03:03:49.652Z,0.00
2023-04-30T03:04:49.657Z,0.00
2023-04-30T03:05:49.606Z,0.00
2023-04-30T03:06:49.613Z,0.00
2023-04-30T03:07:49.613Z,0.00
2023-04-30T03:08:49.639Z,0.00
2023-04-30T03:09:49.557Z,0.00
2023-04-30T03:10:49.560Z,0.00
2023-04-30T03:11:49.583Z,0.00
2023-04-30T03:12:49.567Z,0.00
2023-04-30T03:13:49.509Z,0.00
2023-04-30T03:14:49.527Z,0.00
2023-04-30T03:15:49.612Z,0.00
2023-04-30T03:16:49.549Z,0.00
2023-04-30T03:17:49.499Z,0.00
2023-04-30T03:18:49.496Z,0.00
2023-04-30T03:19:49.485Z,0.00
2023-04-30T03:20:49.512Z,0.00
2023-04-30T03:21:49.436Z,0.00
2023-04-30T03:22:49.423Z,0.00
2023-04-30T03:23:49.430Z,0.00
2023-04-30T03:24:49.422Z,0.00
2023-04-30T03:25:49.395Z,0.00
2023-04-30T03:26:49.385Z,0.00
2023-04-30T03:27:49.380Z,0.00
2023-04-30T03:28:49.367Z,0.00
2023-04-30T03:29:49.370Z,0.00
2023-04-30T03:30:49.329Z,0.00
2023-04-30T03:31:49.397Z,0.00
2023-04-30T03:32:49.327Z,4.00
2023-04-30T03:33:49.377Z,4.00
2023-04-30T03:34:49.296Z,0.00
2023-04-30T03:35:49.327Z,0.00
2023-04-30T03:36:49.281Z,4.00
2023-04-30T03:37:49.263Z,0.00
2023-04-30T03:38:49.243Z,4.00
2023-04-30T03:39:49.286Z,4.00
2023-04-30T03:40:49.247Z,4.00
2023-04-30T03:41:49.238Z,8.00
2023-04-30T03:42:50.815Z,8.00
2023-04-30T03:43:49.198Z,8.00
2023-04-30T03:44:49.189Z,8.00
2023-04-30T03:45:49.200Z,8.00
2023-04-30T03:46:49.154Z,8.00
2023-04-30T03:47:49.275Z,12.00
2023-04-30T03:48:49.158Z,16.00
2023-04-30T03:49:49.148Z,16.00
2023-04-30T03:50:49.130Z,16.00
2023-04-30T03:51:49.113Z,20.00
2023-04-30T03:52:50.058Z,20.00
2023-04-30T03:53:49.107Z,28.00
2023-04-30T03:54:49.074Z,28.00
2023-04-30T03:55:49.082Z,32.00
2023-04-30T03:56:49.058Z,40.00
2023-04-30T03:57:49.070Z,44.00
2023-04-30T03:58:49.024Z,48.00
2023-04-30T03:59:49.024Z,52.00
2023-04-30T04:00:48.992Z,56.00
2023-04-30T04:01:49.031Z,60.00
2023-04-30T04:02:48.984Z,64.00
2023-04-30T04:03:49.029Z,76.00
2023-04-30T04:04:48.961Z,80.00
2023-04-30T04:05:48.961Z,88.00
2023-04-30T04:06:48.989Z,100.00
2023-04-30T04:07:48.961Z,108.00
2023-04-30T04:08:48.949Z,116.00
2023-04-30T04:09:48.934Z,124.00
2023-04-30T04:10:48.903Z,132.00
2023-04-30T04:11:48.882Z,144.00
2023-04-30T04:12:48.879Z,152.00
2023-04-30T04:13:48.863Z,164.00
2023-04-30T04:14:48.853Z,172.00
2023-04-30T04:15:48.967Z,184.00
2023-04-30T04:16:48.856Z,192.00
2023-04-30T04:17:48.862Z,204.00
2023-04-30T04:18:48.801Z,216.00
2023-04-30T04:19:48.812Z,228.00
2023-04-30T04:20:48.789Z,236.00
2023-04-30T04:21:48.767Z,248.00
2023-04-30T04:22:48.753Z,260.00
2023-04-30T04:23:48.761Z,272.00
2023-04-30T04:24:48.778Z,280.00
2023-04-30T04:25:48.752Z,292.00
2023-04-30T04:26:48.763Z,300.00
2023-04-30T04:27:48.714Z,312.00
2023-04-30T04:28:48.695Z,324.00
2023-04-30T04:29:48.715Z,332.00
2023-04-30T04:30:48.722Z,344.00
2023-04-30T04:31:48.692Z,356.00
2023-04-30T04:32:49.221Z,368.00
2023-04-30T04:33:48.641Z,380.00
2023-04-30T04:34:48.627Z,388.00
2023-04-30T04:35:48.668Z,400.00
2023-04-30T04:36:48.652Z,408.00
2023-04-30T04:37:48.603Z,424.00
2023-04-30T04:38:48.576Z,432.00
2023-04-30T04:39:48.580Z,440.00
2023-04-30T04:40:48.555Z,448.00
2023-04-30T04:41:48.618Z,460.00
2023-04-30T04:42:48.566Z,472.00
2023-04-30T04:43:48.531Z,476.00
2023-04-30T04:44:48.513Z,492.00
2023-04-30T04:45:48.529Z,500.00
2023-04-30T04:46:48.617Z,508.00
2023-04-30T04:47:48.559Z,516.00
2023-04-30T04:48:48.467Z,524.00
2023-04-30T04:49:48.460Z,532.00
2023-04-30T04:50:48.449Z,540.00
2023-04-30T04:51:48.449Z,552.00
2023-04-30T04:52:48.453Z,560.00
2023-04-30T04:53:48.442Z,568.00
2023-04-30T04:54:48.404Z,576.00
2023-04-30T04:55:48.405Z,584.00
2023-04-30T04:56:48.391Z,592.00
2023-04-30T04:57:48.374Z,600.00
2023-04-30T04:58:48.358Z,608.00
2023-04-30T04:59:48.360Z,616.00
2023-04-30T05:00:48.339Z,624.00
2023-04-30T05:01:48.439Z,632.00
2023-04-30T05:02:48.453Z,636.00
2023-04-30T05:03:48.395Z,648.00
2023-04-30T05:04:48.295Z,656.00
2023-04-30T05:05:48.290Z,664.00
2023-04-30T05:06:48.346Z,668.00
2023-04-30T05:07:48.287Z,672.00
2023-04-30T05:08:48.246Z,684.00
2023-04-30T05:09:48.274Z,688.00
2023-04-30T05:10:48.223Z,692.00
2023-04-30T05:11:48.214Z,704.00
2023-04-30T05:12:48.208Z,712.00
2023-04-30T05:13:48.190Z,720.00
2023-04-30T05:14:48.167Z,724.00
2023-04-30T05:15:48.223Z,728.00
2023-04-30T05:16:48.212Z,736.00
2023-04-30T05:17:48.186Z,744.00
2023-04-30T05:18:48.152Z,748.00
2023-04-30T05:19:48.142Z,756.00
2023-04-30T05:20:48.099Z,764.00
2023-04-30T05:21:48.118Z,768.00
2023-04-30T05:22:48.080Z,776.00
2023-04-30T05:23:48.110Z,780.00
2023-04-30T05:24:48.104Z,788.00
2023-04-30T05:25:48.096Z,796.00
2023-04-30T05:26:48.105Z,800.00
2023-04-30T05:27:48.069Z,808.00
2023-04-30T05:28:48.127Z,816.00
2023-04-30T05:29:48.170Z,820.00
2023-04-30T05:30:48.150Z,828.00
2023-04-30T05:31:48.156Z,836.00
2023-04-30T05:32:48.117Z,844.00
2023-04-30T05:33:48.102Z,852.00
2023-04-30T05:34:48.131Z,856.00
2023-04-30T05:35:48.139Z,864.00
2023-04-30T05:36:48.128Z,876.00
2023-04-30T05:37:48.151Z,884.00
2023-04-30T05:38:48.325Z,892.00
2023-04-30T05:39:48.247Z,896.00
2023-04-30T05:40:48.176Z,904.00
2023-04-30T05:41:49.081Z,912.00
2023-04-30T05:42:48.178Z,916.00
2023-04-30T05:43:48.238Z,924.00
2023-04-30T05:44:47.833Z,928.00
2023-04-30T05:45:47.964Z,936.00
2023-04-30T05:46:48.188Z,940.00
2023-04-30T05:47:48.213Z,948.00
2023-04-30T05:48:47.801Z,952.00
2023-04-30T05:49:48.244Z,960.00
2023-04-30T05:50:48.220Z,960.00
2023-04-30T05:51:48.355Z,968.00
2023-04-30T05:52:48.283Z,972.00
2023-04-30T05:53:48.277Z,980.00
2023-04-30T05:54:49.839Z,984.00
2023-04-30T05:55:47.732Z,988.00
2023-04-30T05:56:47.733Z,996.00
2023-04-30T05:57:47.700Z,1004.00
2023-04-30T05:58:47.686Z,1012.00
2023-04-30T05:59:47.710Z,1012.00
2023-04-30T06:00:47.667Z,1020.00
2023-04-30T06:01:47.709Z,1024.00
2023-04-30T06:02:47.672Z,1032.00
2023-04-30T06:03:47.647Z,1036.00
2023-04-30T06:04:47.659Z,1040.00
2023-04-30T06:05:47.800Z,1048.00
2023-04-30T06:06:47.643Z,1048.00
2023-04-30T06:07:47.598Z,1056.00
2023-04-30T06:08:47.580Z,1060.00
2023-04-30T06:09:47.600Z,1064.00
2023-04-30T06:10:47.543Z,1068.00
2023-04-30T06:11:47.588Z,1076.00
2023-04-30T06:12:47.569Z,1080.00
2023-04-30T06:13:47.515Z,1084.00
2023-04-30T06:14:47.512Z,1088.00
2023-04-30T06:15:47.530Z,1092.00
2023-04-30T06:16:47.589Z,1096.00
2023-04-30T06:17:47.522Z,1104.00
2023-04-30T06:18:47.481Z,1108.00
2023-04-30T06:19:47.473Z,1112.00
2023-04-30T06:20:47.465Z,1116.00
2023-04-30T06:21:47.464Z,1124.00
2023-04-30T06:22:47.419Z,1124.00
2023-04-30T06:23:47.417Z,1128.00
2023-04-30T06:24:47.396Z,1132.00
2023-04-30T06:25:47.400Z,1136.00
2023-04-30T06:26:47.426Z,1140.00
2023-04-30T06:27:47.423Z,1148.00
2023-04-30T06:28:47.352Z,1148.00
2023-04-30T06:29:47.352Z,1152.00
2023-04-30T06:30:47.336Z,1156.00
2023-04-30T06:31:47.416Z,1160.00
2023-04-30T06:32:47.337Z,1164.00
2023-04-30T06:33:47.301Z,1168.00
2023-04-30T06:34:47.283Z,1172.00
2023-04-30T06:35:47.288Z,1180.00
2023-04-30T06:36:47.267Z,1184.00
2023-04-30T06:37:47.257Z,1188.00
2023-04-30T06:38:47.280Z,1192.00
2023-04-30T06:39:47.248Z,1196.00
2023-04-30T06:40:47.212Z,1200.00
2023-04-30T06:41:47.490Z,1208.00
2023-04-30T06:42:47.817Z,1208.00
2023-04-30T06:43:47.195Z,1212.00
2023-04-30T06:44:47.203Z,1216.00
2023-04-30T06:45:47.229Z,1220.00
2023-04-30T06:46:47.269Z,1228.00
2023-04-30T06:47:47.228Z,1232.00
2023-04-30T06:48:47.126Z,1236.00
2023-04-30T06:49:47.142Z,1244.00
2023-04-30T06:50:47.108Z,1248.00
2023-04-30T06:51:47.095Z,1256.00
2023-04-30T06:52:47.093Z,1260.00
2023-04-30T06:53:47.092Z,1264.00
2023-04-30T06:54:47.050Z,1272.00
2023-04-30T06:55:47.064Z,1276.00
2023-04-30T06:56:47.044Z,1280.00
2023-04-30T06:57:47.036Z,1280.00
2023-04-30T06:58:47.024Z,1292.00
2023-04-30T06:59:47.026Z,1292.00
2023-04-30T07:00:46.983Z,1296.00
2023-04-30T07:01:47.807Z,1300.00
2023-04-30T07:02:47.051Z,1300.00
2023-04-30T07:03:47.253Z,1300.00
2023-04-30T07:04:46.973Z,1300.00
2023-04-30T07:05:46.953Z,1308.00
2023-04-30T07:06:46.987Z,1312.00
2023-04-30T07:07:46.949Z,1316.00
2023-04-30T07:08:46.923Z,1308.00
2023-04-30T07:09:47.359Z,1300.00
2023-04-30T07:10:46.915Z,1324.00
2023-04-30T07:11:46.874Z,1312.00
2023-04-30T07:12:46.866Z,1148.00
2023-04-30T07:13:46.875Z,1212.00
2023-04-30T07:14:46.873Z,1352.00
2023-04-30T07:15:46.884Z,1372.00
2023-04-30T07:16:46.820Z,1372.00
2023-04-30T07:17:46.827Z,1364.00
2023-04-30T07:18:46.779Z,1344.00
2023-04-30T07:19:46.789Z,1356.00
2023-04-30T07:20:46.780Z,1164.00
2023-04-30T07:21:46.778Z,1348.00
2023-04-30T07:22:46.740Z,1364.00
2023-04-30T07:23:46.745Z,1376.00
2023-04-30T07:24:46.716Z,1384.00
2023-04-30T07:25:46.747Z,1376.00
2023-04-30T07:26:46.715Z,1380.00
2023-04-30T07:27:46.695Z,1380.00
2023-04-30T07:28:46.672Z,1388.00
2023-04-30T07:29:46.676Z,1388.00
2023-04-30T07:30:46.652Z,1400.00
2023-04-30T07:31:46.710Z,1400.00
2023-04-30T07:32:46.656Z,1408.00
2023-04-30T07:33:46.647Z,1412.00
2023-04-30T07:34:46.604Z,1420.00
2023-04-30T07:35:46.627Z,1428.00
2023-04-30T07:36:46.610Z,1440.00
2023-04-30T07:37:46.581Z,1440.00
2023-04-30T07:38:46.578Z,1448.00
2023-04-30T07:39:46.561Z,1452.00
2023-04-30T07:40:46.536Z,1452.00
2023-04-30T07:41:46.565Z,1460.00
2023-04-30T07:42:46.520Z,1468.00
2023-04-30T07:43:46.510Z,1476.00
2023-04-30T07:44:46.503Z,1484.00
2023-04-30T07:45:46.510Z,1488.00
2023-04-30T07:46:46.495Z,1496.00
2023-04-30T07:47:46.507Z,1500.00
2023-04-30T07:48:46.519Z,1508.00
2023-04-30T07:49:46.437Z,1516.00
2023-04-30T07:50:46.448Z,1516.00
2023-04-30T07:51:46.421Z,1524.00
2023-04-30T07:52:46.421Z,1532.00
2023-04-30T07:53:46.422Z,1536.00
2023-04-30T07:54:46.428Z,1528.00
2023-04-30T07:55:46.397Z,1540.00
2023-04-30T07:56:46.458Z,1552.00
2023-04-30T07:57:46.370Z,1556.00
2023-04-30T07:58:46.375Z,1560.00
2023-04-30T07:59:46.329Z,1568.00
2023-04-30T08:00:46.343Z,1576.00
2023-04-30T08:01:46.380Z,1576.00
2023-04-30T08:02:46.501Z,1584.00
2023-04-30T08:03:46.479Z,1592.00
2023-04-30T08:04:46.283Z,1600.00
2023-04-30T08:05:46.292Z,1600.00
2023-04-30T08:06:46.326Z,1604.00
2023-04-30T08:07:46.237Z,1612.00
2023-04-30T08:08:46.433Z,1628.00
2023-04-30T08:09:46.226Z,1632.00
2023-04-30T08:10:46.223Z,1636.00
2023-04-30T08:11:46.194Z,1636.00
2023-04-30T08:12:46.192Z,1640.00
2023-04-30T08:13:46.183Z,1652.00
2023-04-30T08:14:46.213Z,1660.00
2023-04-30T08:15:46.154Z,1672.00
2023-04-30T08:16:46.213Z,1676.00
2023-04-30T08:17:46.175Z,1676.00
2023-04-30T08:18:46.124Z,1684.00
2023-04-30T08:19:46.136Z,1688.00
2023-04-30T08:20:46.122Z,1696.00
2023-04-30T08:21:46.090Z,1696.00
2023-04-30T08:22:46.143Z,1704.00
2023-04-30T08:23:46.111Z,1708.00
2023-04-30T08:24:46.102Z,1708.00
2023-04-30T08:25:46.037Z,1708.00
2023-04-30T08:26:46.056Z,1720.00
2023-04-30T08:27:46.032Z,1728.00
2023-04-30T08:28:46.012Z,1732.00
2023-04-30T08:29:45.998Z,1732.00
2023-04-30T08:30:46.016Z,1736.00
2023-04-30T08:31:45.998Z,1744.00
2023-04-30T08:32:46.063Z,1752.00
2023-04-30T08:33:45.964Z,1756.00
2023-04-30T08:34:45.950Z,1752.00
2023-04-30T08:35:45.968Z,1764.00
2023-04-30T08:36:45.946Z,1772.00
2023-04-30T08:37:46.768Z,1772.00
2023-04-30T08:38:45.935Z,1776.00
2023-04-30T08:39:45.900Z,1780.00
2023-04-30T08:40:51.765Z,1784.00
2023-04-30T08:41:46.877Z,1788.00
2023-04-30T08:42:45.940Z,1792.00
2023-04-30T08:43:45.840Z,1804.00
2023-04-30T08:44:45.828Z,1812.00
2023-04-30T08:45:45.869Z,1820.00
2023-04-30T08:46:45.835Z,1824.00
2023-04-30T08:47:45.972Z,1828.00
2023-04-30T08:48:45.793Z,1840.00
2023-04-30T08:49:45.771Z,1848.00
2023-04-30T08:50:45.989Z,1860.00
2023-04-30T08:51:45.754Z,1868.00
2023-04-30T08:52:45.757Z,1876.00
2023-04-30T08:53:45.738Z,1880.00
2023-04-30T08:54:45.837Z,1888.00
2023-04-30T08:55:45.711Z,1896.00
2023-04-30T08:56:45.737Z,1904.00
2023-04-30T08:57:45.705Z,1916.00
2023-04-30T08:58:45.714Z,1920.00
2023-04-30T08:59:45.681Z,1928.00
2023-04-30T09:00:45.667Z,1940.00
2023-04-30T09:01:45.716Z,1948.00
2023-04-30T09:02:45.723Z,1956.00
2023-04-30T09:03:45.753Z,1960.00
2023-04-30T09:04:45.629Z,1976.00
2023-04-30T09:05:45.663Z,1980.00
2023-04-30T09:06:45.700Z,1984.00
2023-04-30T09:08:45.667Z,2008.00
2023-04-30T09:09:45.716Z,2008.00
2023-04-30T09:10:46.109Z,2008.00
2023-04-30T09:11:45.693Z,2028.00
2023-04-30T09:12:45.755Z,2028.00
2023-04-30T09:13:45.714Z,2036.00
2023-04-30T09:14:45.727Z,2048.00
2023-04-30T09:15:45.720Z,2048.00
2023-04-30T09:16:45.852Z,2064.00
2023-04-30T09:17:48.356Z,2076.00
2023-04-30T09:18:45.489Z,2092.00
2023-04-30T09:19:45.442Z,2092.00
2023-04-30T09:20:45.431Z,2096.00
2023-04-30T09:21:45.419Z,2108.00
2023-04-30T09:22:45.442Z,2120.00
2023-04-30T09:23:45.406Z,2124.00
2023-04-30T09:24:45.392Z,2136.00
2023-04-30T09:25:45.361Z,2140.00
2023-04-30T09:26:45.363Z,2148.00
2023-04-30T09:27:45.367Z,2152.00
2023-04-30T09:28:45.376Z,2152.00
2023-04-30T09:29:45.319Z,2160.00
2023-04-30T09:30:45.339Z,2164.00
2023-04-30T09:31:45.332Z,2172.00
2023-04-30T09:32:45.327Z,2172.00
2023-04-30T09:33:45.276Z,2168.00
2023-04-30T09:34:45.290Z,2164.00
2023-04-30T09:35:45.262Z,2176.00
2023-04-30T09:36:45.253Z,2188.00
2023-04-30T09:37:45.233Z,2188.00
2023-04-30T09:38:45.226Z,2188.00
2023-04-30T09:39:45.250Z,2192.00
2023-04-30T09:40:45.208Z,2200.00
2023-04-30T09:41:45.214Z,2196.00
2023-04-30T09:42:45.189Z,2192.00
2023-04-30T09:43:45.186Z,2200.00
2023-04-30T09:44:45.171Z,2212.00
2023-04-30T09:45:45.179Z,2208.00
2023-04-30T09:46:45.321Z,2204.00
2023-04-30T09:47:45.156Z,2208.00
2023-04-30T09:48:45.118Z,2216.00
2023-04-30T09:49:45.133Z,2224.00
2023-04-30T09:50:45.574Z,2240.00
2023-04-30T09:51:45.131Z,2236.00
2023-04-30T09:52:45.093Z,2236.00
2023-04-30T09:53:45.066Z,2240.00
2023-04-30T09:54:45.060Z,2248.00
2023-04-30T09:55:45.049Z,2256.00
2023-04-30T09:56:45.036Z,2260.00
2023-04-30T09:57:45.007Z,2276.00
2023-04-30T09:58:45.021Z,2252.00
2023-04-30T09:59:45.008Z,2248.00
2023-04-30T10:00:45.045Z,2272.00
2023-04-30T10:01:44.982Z,2288.00
2023-04-30T10:02:44.978Z,2284.00
2023-04-30T10:03:44.980Z,2296.00
2023-04-30T10:04:45.027Z,2304.00
2023-04-30T10:05:44.943Z,2308.00
2023-04-30T10:06:44.969Z,2300.00
2023-04-30T10:07:44.918Z,2312.00
2023-04-30T10:08:44.897Z,2332.00
2023-04-30T10:09:44.879Z,2336.00
2023-04-30T10:10:45.807Z,2344.00
2023-04-30T10:11:44.864Z,2356.00
2023-04-30T10:12:44.904Z,2360.00
2023-04-30T10:13:44.839Z,2356.00
2023-04-30T10:14:44.826Z,2352.00
2023-04-30T10:15:44.833Z,2376.00
2023-04-30T10:16:44.868Z,2384.00
2023-04-30T10:17:44.818Z,2380.00
2023-04-30T10:18:44.793Z,2384.00
2023-04-30T10:19:47.694Z,2388.00
2023-04-30T10:20:44.759Z,2396.00
2023-04-30T10:21:44.738Z,2404.00
2023-04-30T10:22:44.754Z,2416.00
2023-04-30T10:23:44.715Z,2416.00
2023-04-30T10:24:44.708Z,2416.00
2023-04-30T10:25:44.763Z,2420.00
2023-04-30T10:26:44.697Z,2424.00
2023-04-30T10:27:44.697Z,2424.00
2023-04-30T10:28:44.686Z,2408.00
2023-04-30T10:29:44.651Z,2412.00
2023-04-30T10:30:44.645Z,2420.00
2023-04-30T10:31:44.682Z,2432.00
2023-04-30T10:32:44.665Z,2436.00
2023-04-30T10:33:44.645Z,2440.00
2023-04-30T10:34:44.609Z,2440.00
2023-04-30T10:35:44.589Z,2448.00
2023-04-30T10:36:44.702Z,2464.00
2023-04-30T10:37:44.570Z,2468.00
2023-04-30T10:38:46.494Z,2484.00
2023-04-30T10:39:44.572Z,2480.00
2023-04-30T10:40:44.535Z,2484.00
2023-04-30T10:41:44.524Z,2480.00
2023-04-30T10:42:44.520Z,2488.00
2023-04-30T10:43:44.518Z,2496.00
2023-04-30T10:44:44.521Z,2496.00
2023-04-30T10:45:44.496Z,2500.00
2023-04-30T10:46:44.522Z,2500.00
2023-04-30T10:47:44.516Z,2512.00
2023-04-30T10:48:44.491Z,2484.00
2023-04-30T10:49:44.434Z,2504.00
2023-04-30T10:50:46.096Z,2536.00
2023-04-30T10:51:44.430Z,2540.00
2023-04-30T10:52:44.414Z,2540.00
2023-04-30T10:53:44.413Z,2548.00
2023-04-30T10:54:44.386Z,2560.00
2023-04-30T10:55:44.370Z,2560.00
2023-04-30T10:56:44.362Z,2564.00
2023-04-30T10:57:44.332Z,2576.00
2023-04-30T10:58:44.374Z,2580.00
2023-04-30T10:59:44.319Z,2584.00
2023-04-30T11:00:45.017Z,2588.00
2023-04-30T11:01:44.330Z,2572.00
2023-04-30T11:02:44.452Z,2588.00
2023-04-30T11:03:44.298Z,2592.00
2023-04-30T11:04:44.340Z,2596.00
2023-04-30T11:05:44.251Z,2612.00
2023-04-30T11:06:45.065Z,2608.00
2023-04-30T11:07:44.268Z,2612.00
2023-04-30T11:08:44.237Z,2616.00
2023-04-30T11:09:44.326Z,2628.00
2023-04-30T11:10:44.224Z,2628.00
2023-04-30T11:11:44.220Z,2628.00
2023-04-30T11:12:44.179Z,2636.00
2023-04-30T11:13:44.233Z,2640.00
2023-04-30T11:14:44.222Z,2656.00
2023-04-30T11:15:44.223Z,2672.00
2023-04-30T11:16:44.166Z,2684.00
2023-04-30T11:17:44.183Z,2692.00
2023-04-30T11:18:44.123Z,2696.00
2023-04-30T11:19:44.150Z,2696.00
2023-04-30T11:20:44.110Z,2696.00
2023-04-30T11:21:44.083Z,2704.00
2023-04-30T11:22:44.072Z,2716.00
2023-04-30T11:23:44.055Z,2724.00
2023-04-30T11:24:44.054Z,2732.00
2023-04-30T11:25:44.040Z,2736.00
2023-04-30T11:26:44.038Z,2744.00
2023-04-30T11:27:44.016Z,2756.00
2023-04-30T11:28:44.090Z,2764.00
2023-04-30T11:29:43.981Z,2776.00
2023-04-30T11:30:43.998Z,2780.00
2023-04-30T11:31:44.042Z,2760.00
2023-04-30T11:32:44.029Z,2796.00
2023-04-30T11:33:43.943Z,2804.00
2023-04-30T11:34:43.953Z,2816.00
2023-04-30T11:35:43.929Z,2812.00
2023-04-30T11:36:50.642Z,2808.00
2023-04-30T11:37:43.916Z,2784.00
2023-04-30T11:38:43.894Z,2828.00
2023-04-30T11:39:44.645Z,2840.00
2023-04-30T11:40:43.873Z,2820.00
2023-04-30T11:41:43.888Z,2852.00
2023-04-30T11:42:46.180Z,2860.00
2023-04-30T11:43:43.851Z,2884.00
2023-04-30T11:44:43.834Z,2884.00
2023-04-30T11:45:43.828Z,2880.00
2023-04-30T11:46:43.915Z,2868.00
2023-04-30T11:47:43.899Z,2868.00
2023-04-30T11:48:43.798Z,2900.00
2023-04-30T11:49:43.770Z,2912.00
2023-04-30T11:50:43.771Z,2916.00
2023-04-30T11:51:43.767Z,2932.00
2023-04-30T11:52:43.780Z,2900.00
2023-04-30T11:53:43.734Z,2936.00
2023-04-30T11:54:43.738Z,2932.00
2023-04-30T11:55:43.696Z,2960.00
2023-04-30T11:56:43.714Z,2980.00
2023-04-30T11:57:43.727Z,2960.00
2023-04-30T11:58:43.692Z,2996.00
2023-04-30T11:59:43.973Z,2976.00
2023-04-30T12:00:43.650Z,2992.00
2023-04-30T12:01:43.710Z,3000.00
2023-04-30T12:02:43.761Z,3012.00
2023-04-30T12:03:43.728Z,3008.00
2023-04-30T12:04:43.609Z,3032.00
2023-04-30T12:05:43.597Z,2984.00
2023-04-30T12:06:43.709Z,3028.00
2023-04-30T12:07:43.597Z,3068.00
2023-04-30T12:08:43.557Z,3032.00
2023-04-30T12:09:43.573Z,3060.00
2023-04-30T12:10:43.548Z,3084.00
2023-04-30T12:11:43.564Z,3100.00
2023-04-30T12:12:43.534Z,3096.00
2023-04-30T12:13:43.519Z,3060.00
2023-04-30T12:14:43.510Z,3072.00
2023-04-30T12:15:43.511Z,3080.00
2023-04-30T12:16:43.600Z,3168.00
2023-04-30T12:17:43.512Z,3212.00
2023-04-30T12:18:43.462Z,3252.00
2023-04-30T12:19:44.258Z,3268.00
2023-04-30T12:20:43.446Z,3316.00
2023-04-30T12:21:43.421Z,3400.00
2023-04-30T12:22:43.404Z,3492.00
2023-04-30T12:23:43.404Z,3528.00
2023-04-30T12:24:43.406Z,2848.00
2023-04-30T12:25:43.490Z,3404.00
2023-04-30T12:26:43.372Z,3276.00
2023-04-30T12:27:43.369Z,3272.00
2023-04-30T12:28:43.341Z,2008.00
2023-04-30T12:29:43.340Z,3340.00
2023-04-30T12:30:43.346Z,3296.00
2023-04-30T12:31:43.383Z,3316.00